Terminal Aerodrome Forecast
Issued by NWS

Home | Current Version | Previous Version | Text Only | Print | Product List | Glossary On
Versions: 1 2 3 4 5 6 7 8 9 10 11 12 13 14 15 16 17 18 19
000
FTUS41 KCLE 010500
TAFFDY
TAF
KFDY 010520Z 0106/0206 08007KT 1 1/2SM -SN OVC015
      TEMPO 0106/0108 3/4SM -SN OVC008
     FM010800 15004KT 3/4SM -SN OVC008
     FM011600 25006KT 4SM -SN OVC012
     FM012200 26008KT P6SM OVC025
     FM020400 25006KT P6SM OVC035=

USA.gov is the U.S. government's official web portal to all federal, state and local government web resources and services.